Time;durP1;ratioP1;P1;durP2;ratioP2;P2;SDS_P1;SDS_P2;PMS_P1;PMS_P2;Temp;Humidity;BMP_temperature;BMP_pressure;BME280_temperature;BME280_humidity;BME280_pressure;Samples;Min_cycle;Max_cycle;Signal;HPM_P1;HPM_P2
2023/04/23 00:01:07;;;;;;;56.40;32.70;;;10.50;99.90;;;-144.05;79.79;56904.06;5033791;28;20034;-77
2023/04/23 00:03:36;;;;;;;60.88;33.63;;;10.50;99.90;;;-144.05;79.63;56912.56;5033689;28;20385;-75
2023/04/23 00:06:09;;;;;;;60.28;34.03;;;10.50;99.90;;;-144.05;79.26;56906.19;5033164;28;20037;-76
2023/04/23 00:08:39;;;;;;;54.75;31.50;;;10.40;99.90;;;-144.05;79.69;56910.44;5033589;28;20117;-75
2023/04/23 00:11:07;;;;;;;56.25;33.53;;;10.40;99.90;;;-144.05;79.57;56889.19;5033340;28;20064;-75
2023/04/23 00:13:35;;;;;;;58.30;33.58;;;10.30;99.90;;;-144.05;79.37;56901.94;5033442;28;20477;-77
2023/04/23 00:16:02;;;;;;;60.28;34.08;;;10.30;99.90;;;-144.05;79.48;56891.31;5015376;28;20033;-76
2023/04/23 00:18:28;;;;;;;56.33;32.83;;;10.30;99.90;;;-144.05;79.55;56923.19;5033489;28;20397;-75
2023/04/23 00:20:54;;;;;;;55.65;32.33;;;10.20;99.90;;;-144.05;80.07;56891.31;5033655;28;20400;-77
2023/04/23 00:23:20;;;;;;;58.65;32.85;;;10.20;99.90;;;-144.05;80.62;56884.94;5016331;28;20029;-76
2023/04/23 00:25:46;;;;;;;58.17;33.22;;;10.20;99.90;;;-144.05;80.43;56923.19;5044590;28;20021;-76
2023/04/23 00:28:12;;;;;;;62.28;35.35;;;10.20;99.90;;;-144.05;81.36;56891.31;5034689;28;20045;-77
2023/04/23 00:30:38;;;;;;;69.07;36.60;;;10.10;99.90;;;-144.05;81.36;56887.06;5032761;28;20096;-76
2023/04/23 00:33:04;;;;;;;59.97;33.08;;;10.20;99.90;;;-144.05;81.33;56904.06;5033341;28;20100;-76
2023/04/23 00:35:30;;;;;;;68.18;36.17;;;10.10;99.90;;;-144.05;81.00;56933.78;5033225;28;20064;-76
2023/04/23 00:37:55;;;;;;;64.03;35.33;;;10.10;99.90;;;-144.05;80.85;56889.19;5032645;28;20026;-76
2023/04/23 00:40:22;;;;;;;62.78;35.42;;;10.10;99.90;;;-144.05;81.02;56921.06;5031437;28;20120;-76
2023/04/23 00:42:52;;;;;;;65.50;35.10;;;10.00;99.90;;;-144.05;81.27;56901.94;5032674;28;20033;-77
2023/04/23 00:45:19;;;;;;;67.45;33.67;;;10.00;99.90;;;-144.05;80.94;56916.81;5032639;28;20071;-77
2023/04/23 00:47:45;;;;;;;64.63;35.65;;;10.00;99.90;;;-144.05;81.34;56910.44;5032475;28;20361;-76
2023/04/23 00:50:12;;;;;;;64.85;35.63;;;10.00;99.90;;;-144.05;81.52;56933.78;5033331;28;20033;-76
2023/04/23 00:52:39;;;;;;;65.47;36.25;;;10.00;99.90;;;-144.05;81.73;56908.31;5017120;28;20083;-77
2023/04/23 00:55:07;;;;;;;69.05;36.28;;;10.00;99.90;;;-144.05;82.11;56921.06;5018217;28;20052;-77
2023/04/23 00:57:36;;;;;;;72.32;36.92;;;10.00;99.90;;;-144.05;82.03;56908.31;5017810;28;20029;-78
2023/04/23 01:00:07;;;;;;;72.35;39.28;;;10.00;99.90;;;-144.05;82.47;56918.94;5033055;28;20029;-77
2023/04/23 01:02:36;;;;;;;74.47;39.60;;;10.00;99.90;;;-144.05;82.67;56912.56;5032307;28;20032;-77
2023/04/23 01:05:04;;;;;;;73.18;38.33;;;10.00;99.90;;;-144.05;82.51;56895.56;5031089;28;20037;-77
2023/04/23 01:07:35;;;;;;;64.22;37.33;;;10.00;99.90;;;-144.05;82.84;56921.06;5032150;28;20049;-77
2023/04/23 01:10:03;;;;;;;68.57;37.70;;;10.00;99.90;;;-144.05;82.74;56887.06;5032330;28;20049;-77
2023/04/23 01:12:30;;;;;;;74.22;39.13;;;9.90;99.90;;;-144.05;82.60;56925.28;5032211;28;20396;-77
2023/04/23 01:14:57;;;;;;;79.60;40.92;;;9.90;99.90;;;-144.05;83.34;56893.44;5031989;28;20695;-77
2023/04/23 01:17:23;;;;;;;73.43;38.17;;;9.90;99.90;;;-144.05;83.07;56921.06;5014117;28;20040;-77
2023/04/23 01:19:49;;;;;;;75.22;40.30;;;9.90;99.90;;;-144.05;83.18;56912.56;5031771;28;20029;-78
2023/04/23 01:22:16;;;;;;;79.32;40.00;;;9.90;99.90;;;-144.05;83.21;56923.19;5031857;28;20033;-77
2023/04/23 01:24:42;;;;;;;74.50;37.92;;;9.90;99.90;;;-144.05;83.23;56914.69;5014138;28;20033;-77
2023/04/23 01:27:10;;;;;;;69.43;37.22;;;9.90;99.90;;;-144.05;83.34;56931.66;5031844;28;20033;-77
2023/04/23 01:29:38;;;;;;;78.53;38.83;;;10.00;99.90;;;-144.05;83.36;56921.06;5031863;28;20026;-77
2023/04/23 01:32:06;;;;;;;72.38;38.50;;;9.90;99.90;;;-144.05;83.64;56914.69;5013876;28;20033;-77
2023/04/23 01:34:34;;;;;;;68.88;38.30;;;9.90;99.90;;;-144.05;83.84;56893.44;5031641;28;20034;-78
2023/04/23 01:37:02;;;;;;;76.03;39.13;;;9.90;99.90;;;-144.05;84.04;56908.31;5031657;28;20053;-77
2023/04/23 01:39:29;;;;;;;66.70;36.67;;;9.90;99.90;;;-144.05;83.86;56927.41;5013751;28;20029;-77
2023/04/23 01:41:56;;;;;;;71.65;37.60;;;9.90;99.90;;;-144.05;84.15;56901.94;5031497;28;20116;-77
2023/04/23 01:44:22;;;;;;;74.93;38.05;;;9.80;99.90;;;-144.05;84.00;56938.03;5031512;28;20033;-77
2023/04/23 01:46:48;;;;;;;66.30;37.72;;;9.80;99.90;;;-144.05;84.27;56927.41;5031304;28;20028;-77
2023/04/23 01:49:14;;;;;;;61.90;34.97;;;9.80;99.90;;;-144.05;83.91;56878.56;5013677;28;20033;-77
2023/04/23 01:51:42;;;;;;;60.65;36.65;;;9.80;99.90;;;-144.05;84.32;56908.31;5013605;28;20108;-77
2023/04/23 01:54:08;;;;;;;61.13;33.75;;;9.80;99.90;;;-144.05;84.51;56876.44;5031470;28;20527;-77
2023/04/23 01:56:34;;;;;;;60.90;34.25;;;9.80;99.90;;;-144.05;84.36;56912.56;5013758;28;20038;-77
2023/04/23 01:59:01;;;;;;;62.78;34.05;;;9.80;99.90;;;-144.05;84.33;56912.56;5031231;28;20054;-77
2023/04/23 02:01:43;;;;;;;61.17;33.00;;;9.70;99.90;;;-144.05;84.44;56927.41;5013531;28;20513;-77
2023/04/23 02:04:12;;;;;;;61.90;35.17;;;9.70;99.90;;;-144.05;84.52;56925.28;5030027;28;20147;-77
2023/04/23 02:06:39;;;;;;;61.15;33.47;;;9.70;99.90;;;-144.05;84.43;56927.41;5030952;28;20075;-77
2023/04/23 02:09:06;;;;;;;65.82;36.72;;;9.70;99.90;;;-144.05;84.64;56906.19;5034751;28;20056;-76
2023/04/23 02:11:32;;;;;;;60.70;33.88;;;9.70;99.90;;;-144.05;84.62;56925.28;5032658;28;20421;-77
2023/04/23 02:14:00;;;;;;;69.28;36.88;;;9.70;99.90;;;-144.05;85.09;56918.94;5030998;28;20032;-77
2023/04/23 02:16:27;;;;;;;61.15;34.58;;;9.70;99.90;;;-144.05;84.93;56882.81;5030656;28;20417;-77
2023/04/23 02:18:54;;;;;;;60.55;32.78;;;9.70;99.90;;;-144.05;84.46;56918.94;5031131;28;20034;-77
2023/04/23 02:21:23;;;;;;;58.28;34.22;;;9.60;99.90;;;-144.05;84.71;56904.06;5031091;28;20044;-76
2023/04/23 02:23:49;;;;;;;60.83;31.23;;;9.60;99.90;;;-144.05;84.94;56904.06;5013369;28;20037;-77
2023/04/23 02:26:16;;;;;;;55.00;32.83;;;9.60;99.90;;;-144.05;84.77;56910.44;5030862;28;20105;-77
2023/04/23 02:28:41;;;;;;;50.22;28.85;;;9.50;99.90;;;-144.05;84.72;56910.44;5031227;28;20072;-76
2023/04/23 02:31:07;;;;;;;62.33;32.25;;;9.60;99.90;;;-144.05;84.63;56918.94;5013742;28;20029;-77
2023/04/23 02:33:33;;;;;;;54.75;31.23;;;9.40;99.90;;;-144.05;84.81;56893.44;5031186;28;20544;-77
2023/04/23 02:35:59;;;;;;;53.80;30.02;;;9.50;99.90;;;-144.05;84.65;56921.06;5013218;28;20036;-77
2023/04/23 02:38:25;;;;;;;56.58;33.65;;;9.40;99.90;;;-144.05;85.24;56912.56;5030936;28;20117;-77
2023/04/23 02:40:50;;;;;;;54.15;30.58;;;9.40;99.90;;;-144.05;84.88;56904.06;5030988;28;20101;-77
2023/04/23 02:43:17;;;;;;;57.72;30.00;;;9.30;99.90;;;-144.05;84.76;56908.31;5029690;28;20029;-77
2023/04/23 02:45:43;;;;;;;52.75;30.70;;;9.30;99.90;;;-144.05;85.28;56931.66;5029551;28;20026;-77
2023/04/23 02:48:11;;;;;;;49.72;29.40;;;9.30;99.90;;;-144.05;85.28;56914.69;5030588;28;20362;-76
2023/04/23 02:50:39;;;;;;;58.28;30.45;;;9.20;99.90;;;-144.05;85.64;56891.31;5030864;28;20064;-75
2023/04/23 02:53:06;;;;;;;55.67;30.90;;;9.30;99.90;;;-144.05;85.64;56931.66;5031349;28;20045;-76
2023/04/23 02:55:32;;;;;;;55.03;31.15;;;9.30;99.90;;;-144.05;85.91;56908.31;5036260;28;20072;-75
2023/04/23 02:57:58;;;;;;;57.35;32.00;;;9.30;99.90;;;-144.05;86.25;56931.66;5030095;28;20029;-76
2023/04/23 03:00:26;;;;;;;52.65;30.45;;;9.30;99.90;;;-144.05;85.74;56912.56;5030904;28;20036;-75
2023/04/23 03:02:52;;;;;;;51.67;31.13;;;9.30;99.90;;;-144.05;86.02;56925.28;5013163;28;20502;-75
2023/04/23 03:05:18;;;;;;;55.90;29.98;;;9.30;99.90;;;-144.05;85.74;56935.91;5013022;28;20036;-76
2023/04/23 03:07:44;;;;;;;52.42;30.95;;;9.40;99.90;;;-144.05;85.61;56901.94;5030501;28;20378;-75
2023/04/23 03:10:10;;;;;;;48.20;28.60;;;9.40;99.90;;;-144.05;85.07;56918.94;5030634;28;20140;-77
2023/04/23 03:12:36;;;;;;;50.53;29.48;;;9.40;99.90;;;-144.05;84.90;56910.44;5030634;28;20112;-76
2023/04/23 03:15:02;;;;;;;48.47;28.35;;;9.40;99.90;;;-144.05;84.97;56908.31;5030497;28;20500;-75
2023/04/23 03:17:28;;;;;;;48.13;29.38;;;9.40;99.90;;;-144.05;84.69;56914.69;5030583;28;20036;-76
2023/04/23 03:19:54;;;;;;;47.45;28.15;;;9.40;99.90;;;-144.05;85.05;56910.44;5030452;28;20029;-76
2023/04/23 03:22:20;;;;;;;46.25;27.45;;;9.40;99.90;;;-144.05;84.57;56925.28;5030569;28;20030;-75
2023/04/23 03:24:46;;;;;;;45.08;26.45;;;9.30;99.90;;;-144.05;84.26;56912.56;5030473;28;20076;-75
2023/04/23 03:27:12;;;;;;;46.47;27.90;;;9.30;99.90;;;-144.05;84.61;56929.53;5030441;28;20438;-75
2023/04/23 03:29:38;;;;;;;47.47;28.08;;;9.20;99.90;;;-144.05;85.04;56923.19;5031776;28;20129;-76
2023/04/23 03:32:04;;;;;;;42.42;27.17;;;9.20;99.90;;;-144.05;84.95;56921.06;5016242;28;20026;-77
2023/04/23 03:34:29;;;;;;;45.45;28.55;;;9.20;99.90;;;-144.05;85.15;56933.78;5034045;28;20539;-77
2023/04/23 03:36:55;;;;;;;46.55;28.27;;;9.30;99.90;;;-144.05;85.60;56916.81;5033970;28;20057;-76
2023/04/23 03:39:21;;;;;;;51.22;30.30;;;9.30;99.90;;;-144.05;85.65;56923.19;5032488;28;20532;-77
2023/04/23 03:41:48;;;;;;;45.85;28.45;;;9.30;99.90;;;-144.05;85.43;56923.19;5033893;28;20032;-77
2023/04/23 03:44:14;;;;;;;50.55;28.63;;;9.30;99.90;;;-144.05;85.56;56904.06;5033725;28;20025;-76
2023/04/23 03:46:40;;;;;;;47.58;28.00;;;9.30;99.90;;;-144.05;85.39;56921.06;5033683;28;20076;-77
2023/04/23 03:49:05;;;;;;;47.95;29.33;;;9.30;99.90;;;-144.05;84.64;56946.53;5033610;28;20064;-76
2023/04/23 03:51:31;;;;;;;48.08;27.42;;;9.40;99.90;;;-144.05;85.02;56901.94;5033687;28;20535;-77
2023/04/23 03:53:57;;;;;;;47.97;29.02;;;9.40;99.90;;;-144.05;84.38;56918.94;5035363;28;20041;-77
2023/04/23 03:56:23;;;;;;;43.58;26.58;;;9.40;99.90;;;-144.05;84.43;56918.94;5039951;28;20029;-76
2023/04/23 03:58:49;;;;;;;45.88;28.30;;;9.30;99.90;;;-144.05;84.31;56899.81;5033590;28;20033;-76
2023/04/23 04:01:14;;;;;;;46.38;28.35;;;9.40;99.90;;;-144.05;85.01;56908.31;5033530;28;20069;-76
2023/04/23 04:03:40;;;;;;;43.50;26.65;;;9.40;99.90;;;-144.05;84.40;56908.31;5033544;28;20104;-76
2023/04/23 04:06:07;;;;;;;43.13;26.75;;;9.40;99.90;;;-144.05;84.51;56884.94;5033220;28;20037;-76
2023/04/23 04:08:32;;;;;;;43.42;26.73;;;9.40;99.90;;;-144.05;84.29;56914.69;5070563;22;20466;-76
2023/04/23 04:10:58;;;;;;;40.63;26.10;;;9.40;99.90;;;-144.05;84.14;56904.06;5052748;28;20099;-75
2023/04/23 04:13:24;;;;;;;42.40;26.05;;;9.40;99.90;;;-144.05;84.01;56931.66;5051254;28;20033;-75
2023/04/23 04:15:50;;;;;;;40.83;25.98;;;9.40;99.90;;;-144.05;84.01;56906.19;5052787;28;20044;-75
2023/04/23 04:18:16;;;;;;;44.55;24.52;;;9.40;99.90;;;-144.05;83.42;56933.78;5052828;28;20029;-75
2023/04/23 04:20:43;;;;;;;41.28;25.10;;;9.30;99.90;;;-144.05;83.32;56912.56;5052618;28;20087;-76
2023/04/23 04:23:09;;;;;;;44.03;25.67;;;9.30;99.90;;;-144.05;83.31;56916.81;5052683;28;20041;-76
2023/04/23 04:25:38;;;;;;;40.03;25.00;;;9.30;99.90;;;-144.05;83.17;56908.31;5054503;28;20035;-74
2023/04/23 04:28:08;;;;;;;46.97;27.67;;;9.40;99.90;;;-144.05;83.67;56891.31;5051076;28;20051;-75
2023/04/23 04:30:34;;;;;;;43.42;26.80;;;9.40;99.90;;;-144.05;83.44;56933.78;5051312;28;20021;-76
2023/04/23 04:33:00;;;;;;;43.40;25.83;;;9.40;99.90;;;-144.05;82.92;56918.94;5052780;28;20040;-76
2023/04/23 04:35:26;;;;;;;39.53;26.17;;;9.50;99.90;;;-144.05;82.83;56918.94;5053040;28;20032;-76
2023/04/23 04:37:53;;;;;;;41.08;26.08;;;9.50;99.90;;;-144.05;83.56;56912.56;5052302;28;20032;-75
2023/04/23 04:40:19;;;;;;;39.85;24.52;;;9.60;99.90;;;-144.05;83.21;56929.53;5052549;28;20102;-76
2023/04/23 04:42:45;;;;;;;38.58;23.42;;;9.60;99.90;;;-144.05;82.69;56925.28;5052613;28;20404;-76
2023/04/23 04:45:12;;;;;;;35.70;24.63;;;9.60;99.90;;;-144.05;82.54;56908.31;5052755;28;20514;-76
2023/04/23 04:47:38;;;;;;;39.20;24.17;;;9.70;99.90;;;-144.05;82.24;56918.94;5052915;28;20037;-75
2023/04/23 04:50:05;;;;;;;35.17;23.50;;;9.70;99.90;;;-144.05;81.78;56899.81;5052071;28;20091;-74
2023/04/23 04:52:31;;;;;;;34.20;23.45;;;9.70;99.90;;;-144.05;81.82;56891.31;5052028;28;20025;-76
2023/04/23 04:54:57;;;;;;;39.10;23.52;;;9.70;99.90;;;-144.05;81.34;56925.28;5051961;28;20032;-75
2023/04/23 04:57:23;;;;;;;35.92;23.38;;;9.80;99.90;;;-144.05;81.27;56910.44;5052123;28;20396;-77
2023/04/23 04:59:49;;;;;;;35.20;22.27;;;9.80;99.90;;;-144.05;80.95;56891.31;5052191;28;20036;-76
2023/04/23 05:02:15;;;;;;;32.85;22.67;;;9.80;99.90;;;-144.05;81.32;56918.94;5034448;28;20096;-76
2023/04/23 05:04:41;;;;;;;35.17;22.63;;;9.80;99.90;;;-144.05;81.38;56908.31;5052252;28;20036;-75
2023/04/23 05:07:07;;;;;;;34.10;22.35;;;9.80;99.90;;;-144.05;81.17;56897.69;5052270;28;20033;-75
2023/04/23 05:09:33;;;;;;;35.95;22.70;;;9.80;99.90;;;-144.05;81.35;56897.69;5052401;28;20117;-73
2023/04/23 05:12:00;;;;;;;36.03;22.23;;;9.80;99.90;;;-144.05;80.78;56916.81;5052083;28;20451;-74
2023/04/23 05:14:26;;;;;;;33.72;22.40;;;9.80;99.90;;;-144.05;81.20;56914.69;5052317;28;20025;-74
2023/04/23 05:16:52;;;;;;;34.35;22.75;;;9.80;99.90;;;-144.05;81.11;56904.06;5052445;28;20111;-76
2023/04/23 05:19:17;;;;;;;31.23;21.52;;;9.80;99.90;;;-144.05;80.84;56923.19;5051968;28;20056;-74
2023/04/23 05:21:43;;;;;;;33.72;20.27;;;9.80;99.90;;;-144.05;80.54;56912.56;5051864;28;20044;-75
2023/04/23 05:24:09;;;;;;;32.33;20.48;;;9.80;99.90;;;-144.05;80.09;56914.69;5051833;28;20052;-74
2023/04/23 05:26:35;;;;;;;33.92;21.88;;;9.80;99.90;;;-144.05;79.90;56923.19;5051634;28;20088;-75
2023/04/23 05:29:01;;;;;;;32.47;20.55;;;9.90;99.90;;;-144.05;79.85;56910.44;5050464;28;20032;-76
2023/04/23 05:31:27;;;;;;;33.08;21.77;;;9.90;99.90;;;-144.05;79.32;56914.69;5051469;28;20048;-75
2023/04/23 05:33:53;;;;;;;30.38;21.40;;;10.00;99.90;;;-144.05;79.57;56925.28;5050157;28;20048;-76
2023/04/23 05:36:19;;;;;;;29.77;20.80;;;10.10;99.90;;;-144.05;79.10;56912.56;5051510;28;20021;-76
2023/04/23 05:38:46;;;;;;;28.55;18.55;;;10.20;99.90;;;-144.05;79.00;56912.56;5051323;28;20025;-76
2023/04/23 05:41:13;;;;;;;26.63;17.88;;;10.20;99.90;;;-144.05;77.56;56925.28;5051593;28;20033;-76
2023/04/23 05:43:39;;;;;;;23.98;17.95;;;10.20;99.90;;;-144.05;77.33;56912.56;5051396;28;20102;-75
2023/04/23 05:46:06;;;;;;;24.20;17.83;;;10.30;99.90;;;-144.05;77.44;56925.28;5051495;28;20037;-75
2023/04/23 05:48:32;;;;;;;23.73;16.95;;;10.40;99.90;;;-144.05;75.65;56901.94;5049868;28;20040;-75
2023/04/23 05:50:59;;;;;;;21.80;15.90;;;10.60;99.90;;;-144.05;75.63;56921.06;5051058;28;20029;-75
2023/04/23 05:53:26;;;;;;;25.02;15.57;;;10.80;99.90;;;-144.05;73.66;56908.31;5050232;28;20106;-76
2023/04/23 05:55:52;;;;;;;22.98;15.70;;;11.00;99.90;;;-144.05;71.85;56891.31;5051502;28;20044;-75
2023/04/23 05:58:18;;;;;;;19.13;13.85;;;11.30;99.90;;;-144.05;70.91;56923.19;5051282;28;20025;-75
2023/04/23 06:00:44;;;;;;;19.58;15.10;;;11.50;99.90;;;-144.05;69.74;56923.19;5052072;28;20056;-75
2023/04/23 06:03:10;;;;;;;18.67;13.68;;;11.70;99.90;;;-144.05;68.88;56916.81;5052525;28;20040;-75
2023/04/23 06:05:37;;;;;;;19.90;13.35;;;11.90;99.90;;;-144.05;68.12;56901.94;5050442;28;20028;-75
2023/04/23 06:08:03;;;;;;;20.83;13.55;;;12.10;99.90;;;-144.05;67.91;56918.94;5052386;28;20088;-75
2023/04/23 06:10:29;;;;;;;17.75;13.23;;;12.30;99.90;;;-144.05;67.37;56918.94;5052078;28;20429;-75
2023/04/23 06:12:55;;;;;;;18.55;12.82;;;12.50;99.90;;;-144.05;67.84;56914.69;5052474;28;20044;-74
2023/04/23 06:15:25;;;;;;;16.23;12.52;;;12.60;99.90;;;-144.05;66.64;56910.44;5050727;28;20017;-73
2023/04/23 06:17:52;;;;;;;16.48;12.15;;;12.80;99.90;;;-144.05;66.20;56901.94;5050318;28;20372;-74
2023/04/23 06:20:18;;;;;;;14.63;11.02;;;13.10;99.90;;;-144.05;64.75;56884.94;5051587;28;20036;-75
2023/04/23 06:22:44;;;;;;;15.13;11.23;;;13.40;99.90;;;-144.05;64.48;56884.94;5049689;28;20033;-74
2023/04/23 06:25:10;;;;;;;13.70;10.48;;;13.80;99.90;;;-144.05;64.79;56889.19;5050937;28;20068;-76
2023/04/23 06:27:36;;;;;;;16.70;10.85;;;14.00;99.90;;;-144.05;63.60;56891.31;5049759;28;20025;-74
2023/04/23 06:30:02;;;;;;;11.45;9.30;;;14.20;99.90;;;-144.05;64.56;56880.69;5051025;28;20108;-76
2023/04/23 06:32:28;;;;;;;12.88;9.85;;;14.20;99.90;;;-144.05;65.01;56912.56;5051330;28;20044;-77
2023/04/23 06:34:54;;;;;;;14.70;9.15;;;14.00;99.90;;;-144.05;65.79;56893.44;5051709;28;20484;-75
2023/04/23 06:37:20;;;;;;;11.88;8.93;;;13.80;99.90;;;-144.05;66.09;56910.44;5033315;28;20127;-76
2023/04/23 06:39:45;;;;;;;12.13;8.80;;;13.60;99.90;;;-144.05;66.97;56921.06;5050677;28;20048;-77
2023/04/23 06:42:11;;;;;;;12.43;8.75;;;13.50;99.90;;;-144.05;67.29;56946.53;5052203;28;20033;-74
2023/04/23 06:44:37;;;;;;;13.18;8.95;;;13.40;99.90;;;-144.05;66.73;56897.69;5033763;28;20396;-74
2023/04/23 06:47:03;;;;;;;12.13;8.30;;;13.40;99.90;;;-144.05;67.54;56889.19;5051622;28;20029;-76
2023/04/23 06:49:30;;;;;;;11.70;8.40;;;13.40;99.90;;;-144.05;67.26;56904.06;5051152;28;20072;-74
2023/04/23 06:51:55;;;;;;;11.52;8.65;;;13.40;99.90;;;-144.05;66.77;56887.06;5051980;28;20025;-75
2023/04/23 06:54:21;;;;;;;12.18;8.57;;;13.50;99.90;;;-144.05;68.00;56889.19;5052326;28;20040;-76
2023/04/23 06:56:47;;;;;;;12.75;8.68;;;13.60;99.90;;;-144.05;66.43;56906.19;5051758;28;20032;-74
2023/04/23 06:59:13;;;;;;;14.95;9.82;;;13.70;99.90;;;-144.05;65.70;56897.69;5033154;28;20044;-75
2023/04/23 07:01:39;;;;;;;11.02;8.60;;;13.70;99.90;;;-144.05;66.48;56912.56;5050906;28;20115;-74
2023/04/23 07:04:05;;;;;;;10.98;8.60;;;13.70;99.90;;;-144.05;66.82;56923.19;5054283;28;20488;-74
2023/04/23 07:06:32;;;;;;;11.02;8.32;;;13.80;99.90;;;-144.05;65.87;56912.56;5038966;28;20029;-74
2023/04/23 07:08:59;;;;;;;13.52;8.90;;;13.90;99.90;;;-144.05;65.46;56923.19;5055102;28;20112;-74
2023/04/23 07:11:25;;;;;;;12.07;8.20;;;14.00;99.90;;;-144.05;65.77;56901.94;5036331;28;20077;-73
2023/04/23 07:13:51;;;;;;;13.15;8.63;;;14.00;99.90;;;-144.05;65.98;56878.56;5055453;28;20025;-75
2023/04/23 07:16:17;;;;;;;11.95;8.45;;;13.90;99.90;;;-144.05;66.56;56927.41;5055422;28;20120;-75
2023/04/23 07:18:43;;;;;;;10.55;8.23;;;13.90;99.90;;;-144.05;66.08;56897.69;5056320;28;20032;-74
2023/04/23 07:21:09;;;;;;;11.57;8.20;;;14.00;99.90;;;-144.05;66.10;56929.53;5056054;28;20025;-74
2023/04/23 07:23:35;;;;;;;11.07;7.70;;;14.00;99.90;;;-144.05;65.38;56929.53;5052839;28;20025;-75
2023/04/23 07:26:00;;;;;;;16.92;8.45;;;14.20;99.90;;;-144.05;64.38;56912.56;5054134;28;20025;-75
2023/04/23 07:28:26;;;;;;;9.07;7.53;;;14.20;99.90;;;-144.05;65.80;56880.69;5052735;28;20095;-76
2023/04/23 07:30:52;;;;;;;9.85;7.25;;;14.40;99.90;;;-144.05;64.83;56884.94;5056621;28;20029;-75
2023/04/23 07:33:18;;;;;;;11.13;7.90;;;14.40;99.90;;;-144.05;64.92;56893.44;5057108;28;20056;-75
2023/04/23 07:35:44;;;;;;;10.20;7.22;;;14.40;99.90;;;-144.05;64.68;56912.56;5056445;28;20100;-75
2023/04/23 07:38:09;;;;;;;13.88;7.53;;;14.50;99.90;;;-144.05;63.97;56899.81;5053558;28;20041;-77
2023/04/23 07:40:35;;;;;;;11.27;8.30;;;14.70;99.90;;;-144.05;60.76;56882.81;5053451;28;20040;-75
2023/04/23 07:43:01;;;;;;;10.40;7.35;;;15.20;99.90;;;-144.05;59.73;56901.94;5053616;28;20044;-74
2023/04/23 07:45:27;;;;;;;8.52;6.93;;;15.70;99.90;;;-144.05;60.15;56895.56;5053998;28;20033;-74
2023/04/23 07:47:53;;;;;;;9.48;6.22;;;15.90;99.90;;;-144.05;60.25;56895.56;5054655;28;20060;-75
2023/04/23 07:50:19;;;;;;;9.63;6.97;;;16.10;99.90;;;-144.05;58.72;56897.69;5053383;28;20053;-75
2023/04/23 07:52:45;;;;;;;8.27;5.88;;;16.40;99.90;;;-144.05;56.52;56901.94;5053196;28;20416;-75
2023/04/23 07:55:11;;;;;;;9.85;6.22;;;16.40;99.90;;;-144.05;57.23;56891.31;5036676;28;20075;-74
2023/04/23 07:57:37;;;;;;;10.15;6.22;;;16.40;99.90;;;-144.05;56.70;56916.81;5054300;28;20078;-76
2023/04/23 08:00:08;;;;;;;9.20;5.80;;;16.50;99.90;;;-144.05;55.79;56884.94;5038514;28;20033;-75
2023/04/23 08:02:34;;;;;;;8.15;5.85;;;16.50;99.90;;;-144.05;56.76;56895.56;5056844;28;20086;-77
2023/04/23 08:05:00;;;;;;;7.57;5.22;;;16.60;99.90;;;-144.05;55.70;56895.56;5052913;28;20036;-75
2023/04/23 08:07:26;;;;;;;7.78;5.10;;;16.80;99.90;;;-144.05;55.75;56916.81;5053065;28;20108;-74
2023/04/23 08:09:52;;;;;;;10.20;5.22;;;17.10;99.90;;;-144.05;54.35;56908.31;5052900;28;20610;-76
2023/04/23 08:12:18;;;;;;;6.43;4.65;;;16.90;99.90;;;-144.05;54.53;56904.06;5052953;28;20165;-75
2023/04/23 08:14:46;;;;;;;9.45;5.18;;;16.90;99.90;;;-144.05;54.22;56916.81;5054929;28;20025;-75
2023/04/23 08:17:12;;;;;;;8.30;4.40;;;17.00;99.90;;;-144.05;54.28;56906.19;5038853;28;20053;-75
2023/04/23 08:19:37;;;;;;;7.40;4.60;;;17.00;99.90;;;-144.05;53.72;56908.31;5056371;28;20029;-75
2023/04/23 08:22:03;;;;;;;8.13;4.60;;;17.10;99.90;;;-144.05;54.27;56921.06;5056476;28;20399;-75
2023/04/23 08:24:29;;;;;;;7.63;4.38;;;17.10;99.90;;;-144.05;52.79;56921.06;5056431;28;20033;-76
2023/04/23 08:26:55;;;;;;;6.63;3.95;;;17.30;99.90;;;-144.05;52.61;56897.69;5054793;28;20040;-75
2023/04/23 08:29:21;;;;;;;4.95;3.75;;;17.60;99.90;;;-144.05;51.93;56916.81;5055256;28;20029;-76
2023/04/23 08:31:47;;;;;;;4.43;3.15;;;17.80;99.90;;;-144.05;53.01;56933.78;5054020;28;20042;-77
2023/04/23 08:34:14;;;;;;;6.53;3.42;;;17.80;99.90;;;-144.05;50.94;56916.81;5055128;28;20067;-77
2023/04/23 08:36:40;;;;;;;5.03;3.33;;;17.90;99.90;;;-144.05;51.63;56940.16;5036601;28;20033;-76
2023/04/23 08:39:06;;;;;;;7.07;3.65;;;17.90;99.90;;;-144.05;50.56;56912.56;5056653;28;20103;-76
2023/04/23 08:41:42;;;;;;;5.60;3.28;;;18.10;99.90;;;-144.05;50.15;56921.06;5037003;28;20047;-76
2023/04/23 08:44:31;;;;;;;6.13;3.63;;;18.30;99.90;;;-144.05;49.93;56929.53;5037661;28;20029;-77
2023/04/23 08:47:05;;;;;;;8.45;3.33;;;18.40;99.90;;;-144.05;48.94;56918.94;5055633;28;20040;-76
2023/04/23 08:49:34;;;;;;;6.05;3.13;;;18.70;99.90;;;-144.05;47.55;56918.94;5056862;28;20028;-76
2023/04/23 08:52:19;;;;;;;6.95;3.40;;;19.00;99.90;;;-144.05;47.05;56912.56;5055406;28;20040;-76
2023/04/23 08:54:53;;;;;;;8.85;2.85;;;18.90;99.90;;;-144.05;47.38;56929.53;5056962;28;20032;-76
2023/04/23 08:57:20;;;;;;;5.97;2.88;;;18.80;99.90;;;-144.05;48.99;56925.28;5056604;28;20496;-75
2023/04/23 08:59:46;;;;;;;6.32;2.83;;;18.20;99.90;;;-144.05;49.37;56925.28;5057694;28;20488;-74
2023/04/23 09:02:14;;;;;;;5.22;2.40;;;18.30;99.90;;;-144.05;48.79;56921.06;5055926;28;20032;-76
2023/04/23 09:04:41;;;;;;;4.93;2.92;;;18.50;99.90;;;-144.05;48.16;56931.66;5055995;28;20404;-74
2023/04/23 09:07:10;;;;;;;5.78;2.67;;;18.40;99.90;;;-144.05;49.45;56923.19;5056564;28;20564;-75
2023/04/23 09:09:38;;;;;;;6.30;2.10;;;18.40;99.90;;;-144.05;48.77;56940.16;5055580;28;20029;-74
2023/04/23 09:12:07;;;;;;;6.03;2.97;;;18.60;99.90;;;-144.05;50.75;56910.44;5056705;28;20099;-74
2023/04/23 09:14:35;;;;;;;4.05;2.53;;;17.90;99.90;;;-144.05;50.85;56897.69;5056927;28;20031;-75
2023/04/23 09:17:04;;;;;;;6.95;2.70;;;17.80;99.90;;;-144.05;48.23;56933.78;5055830;28;20029;-75
2023/04/23 09:19:30;;;;;;;5.03;2.40;;;18.50;99.90;;;-144.05;48.04;56927.41;5055157;28;20408;-75
2023/04/23 09:22:00;;;;;;;5.30;2.53;;;19.20;99.90;;;-144.05;46.91;56935.91;5053354;28;20032;-75
2023/04/23 09:24:27;;;;;;;7.55;2.80;;;19.20;99.90;;;-144.05;47.62;56959.28;5054661;28;20036;-75
2023/04/23 09:26:53;;;;;;;4.22;1.88;;;18.70;99.90;;;-144.05;48.06;56923.19;5041208;28;20029;-75
2023/04/23 09:29:23;;;;;;;3.35;1.90;;;18.00;99.90;;;-144.05;49.33;56916.81;5048554;28;20427;-75
2023/04/23 09:31:55;;;;;;;7.30;2.25;;;17.80;99.90;;;-144.05;48.12;56925.28;5056402;28;20036;-78
2023/04/23 09:34:25;;;;;;;5.38;2.63;;;18.30;99.90;;;-144.05;47.70;56944.41;5054343;28;20404;-77
2023/04/23 09:36:52;;;;;;;7.20;2.40;;;18.20;99.90;;;-144.05;47.96;56921.06;5054417;28;20037;-75
2023/04/23 09:39:23;;;;;;;4.28;2.05;;;18.00;99.90;;;-144.05;48.59;56950.78;5056345;28;20024;-75
2023/04/23 09:41:53;;;;;;;4.50;2.35;;;17.60;99.90;;;-144.05;49.89;56938.03;5053574;28;20032;-75
2023/04/23 09:44:21;;;;;;;5.45;2.10;;;17.50;99.90;;;-144.05;49.49;56933.78;5056966;28;20052;-75
2023/04/23 09:46:48;;;;;;;5.85;2.35;;;17.20;99.90;;;-144.05;49.56;56942.28;5056921;28;20076;-74
2023/04/23 09:49:15;;;;;;;6.63;1.85;;;17.10;99.90;;;-144.05;50.01;56929.53;5052463;28;20025;-74
2023/04/23 09:51:50;;;;;;;6.63;2.13;;;17.10;99.90;;;-144.05;49.12;56904.06;5052801;28;20024;-75
2023/04/23 09:54:22;;;;;;;4.70;1.60;;;17.50;99.90;;;-144.05;48.39;56929.53;5056344;28;20027;-73
2023/04/23 09:56:56;;;;;;;8.48;1.63;;;17.90;99.90;;;-144.05;47.75;56957.16;5055442;28;20031;-73
2023/04/23 09:59:27;;;;;;;4.47;1.63;;;18.40;99.90;;;-144.05;47.34;56923.19;5053727;28;20025;-74